createdAt,value
2024-01-12T00:01:43.974Z,46.67
2024-01-12T00:03:17.019Z,41.55
2024-01-12T00:04:23.749Z,49.17
2024-01-12T00:05:43.524Z,48.00
2024-01-12T00:06:48.243Z,41.17
2024-01-12T00:07:46.453Z,51.38
2024-01-12T00:08:37.702Z,42.58
2024-01-12T00:09:38.464Z,40.97
2024-01-12T00:10:56.003Z,45.22
2024-01-12T00:11:52.027Z,45.25
2024-01-12T00:14:05.204Z,49.47
2024-01-12T00:15:00.346Z,42.65
2024-01-12T00:16:34.927Z,42.92
2024-01-12T00:18:49.413Z,41.75
2024-01-12T00:20:02.732Z,51.88
2024-01-12T00:20:58.815Z,43.67
2024-01-12T00:21:56.769Z,41.13
2024-01-12T00:24:44.294Z,48.20
2024-01-12T00:25:51.202Z,39.72
2024-01-12T00:27:26.547Z,45.03
2024-01-12T00:30:05.455Z,42.28
2024-01-12T00:31:04.567Z,46.80
2024-01-12T00:32:26.331Z,34.20
2024-01-12T00:33:57.469Z,40.30
2024-01-12T00:34:51.595Z,43.97
2024-01-12T00:36:47.162Z,47.63
2024-01-12T00:37:35.680Z,44.63
2024-01-12T00:38:55.275Z,47.75
2024-01-12T00:39:57.188Z,43.53
2024-01-12T00:41:18.469Z,36.53
2024-01-12T00:43:04.179Z,43.83
2024-01-12T00:45:35.324Z,50.10
2024-01-12T00:46:58.737Z,42.50
2024-01-12T00:49:00.105Z,42.60
2024-01-12T00:50:11.857Z,44.63
2024-01-12T00:52:15.287Z,42.80
2024-01-12T00:54:15.908Z,39.35
2024-01-12T00:56:53.472Z,50.47
2024-01-12T00:58:59.287Z,49.47
2024-01-12T00:59:55.516Z,50.20
2024-01-12T01:00:57.013Z,47.15
2024-01-12T01:02:13.802Z,46.47
2024-01-12T01:03:34.411Z,49.65
2024-01-12T01:04:38.006Z,40.85
2024-01-12T01:05:21.440Z,44.25
2024-01-12T01:06:46.332Z,51.70
2024-01-12T01:07:36.984Z,48.70
2024-01-12T01:10:19.729Z,48.42
2024-01-12T01:12:06.658Z,36.42
2024-01-12T01:17:29.548Z,36.70
2024-01-12T01:18:28.325Z,53.53
2024-01-12T01:19:52.617Z,40.10
2024-01-12T01:20:36.083Z,45.65
2024-01-12T01:24:29.416Z,39.67
2024-01-12T01:25:39.497Z,36.70
2024-01-12T01:26:18.817Z,40.60
2024-01-12T01:27:02.543Z,49.05
2024-01-12T01:28:09.236Z,39.45
2024-01-12T01:29:06.500Z,41.35
2024-01-12T01:30:16.942Z,49.63
2024-01-12T01:32:00.876Z,38.70
2024-01-12T01:34:12.170Z,50.35
2024-01-12T01:35:13.057Z,44.08
2024-01-12T01:36:17.770Z,43.70
2024-01-12T01:37:09.918Z,49.75
2024-01-12T01:38:14.970Z,43.30
2024-01-12T01:39:08.902Z,40.33
2024-01-12T01:40:23.272Z,42.67
2024-01-12T01:41:04.254Z,43.75
2024-01-12T01:42:21.902Z,46.83
2024-01-12T01:43:48.893Z,43.65
2024-01-12T01:45:06.623Z,46.70
2024-01-12T01:46:49.368Z,40.55
2024-01-12T01:48:50.437Z,42.35
2024-01-12T01:51:25.950Z,40.65
2024-01-12T01:52:35.117Z,42.35
2024-01-12T01:54:01.525Z,40.25
2024-01-12T01:54:58.627Z,45.97
2024-01-12T01:57:00.255Z,47.92
2024-01-12T01:59:03.450Z,42.25
2024-01-12T01:59:53.224Z,43.22
2024-01-12T02:01:03.657Z,47.58
2024-01-12T02:02:42.086Z,44.83
2024-01-12T02:04:59.646Z,37.92
2024-01-12T02:06:01.829Z,37.40
2024-01-12T02:06:57.811Z,45.42
2024-01-12T02:08:25.887Z,43.92
2024-01-12T02:09:30.228Z,43.15
2024-01-12T02:10:28.916Z,45.67
2024-01-12T02:12:05.285Z,42.53
2024-01-12T02:13:07.949Z,45.53
2024-01-12T02:14:30.056Z,42.88
2024-01-12T02:15:46.372Z,46.55
2024-01-12T02:16:57.381Z,41.17
2024-01-12T02:18:08.824Z,43.13
2024-01-12T02:22:03.635Z,44.72
2024-01-12T02:23:01.424Z,36.95
2024-01-12T02:23:43.421Z,38.30
2024-01-12T02:25:09.983Z,45.70
2024-01-12T02:25:55.393Z,41.90
2024-01-12T02:26:27.775Z,34.75
2024-01-12T02:26:59.361Z,42.55
2024-01-12T02:27:31.128Z,38.95
2024-01-12T02:28:03.011Z,48.30
2024-01-12T02:28:35.525Z,37.05
2024-01-12T02:29:07.300Z,38.85
2024-01-12T02:29:39.422Z,49.28
2024-01-12T02:30:11.988Z,37.42
2024-01-12T02:30:44.219Z,41.70
2024-01-12T02:31:16.782Z,41.40
2024-01-12T02:31:49.592Z,41.33
2024-01-12T02:32:21.489Z,39.40
2024-01-12T02:32:53.267Z,47.45
2024-01-12T02:33:25.007Z,50.20
2024-01-12T02:33:56.745Z,39.33
2024-01-12T02:34:28.468Z,42.00
2024-01-12T02:35:00.101Z,40.58
2024-01-12T02:35:31.767Z,37.83
2024-01-12T02:36:03.487Z,40.95
2024-01-12T02:36:35.034Z,42.10
2024-01-12T02:37:06.641Z,45.08
2024-01-12T02:37:38.222Z,50.88
2024-01-12T02:38:09.795Z,43.67
2024-01-12T02:38:41.509Z,38.92
2024-01-12T02:39:13.263Z,47.25
2024-01-12T02:39:45.103Z,40.80
2024-01-12T02:40:16.698Z,50.78
2024-01-12T02:40:48.261Z,46.50
2024-01-12T02:41:20.009Z,48.47
2024-01-12T02:41:51.860Z,49.72
2024-01-12T02:42:23.621Z,46.63
2024-01-12T02:42:55.195Z,46.90
2024-01-12T02:43:26.765Z,47.17
2024-01-12T02:43:58.345Z,56.78
2024-01-12T02:44:29.939Z,51.15
2024-01-12T02:45:01.615Z,43.30
2024-01-12T02:45:33.275Z,45.70
2024-01-12T02:46:04.874Z,48.83
2024-01-12T02:46:36.916Z,50.15
2024-01-12T02:47:09.441Z,51.83
2024-01-12T02:47:41.106Z,48.85
2024-01-12T02:48:12.897Z,48.28
2024-01-12T02:48:44.734Z,49.72
2024-01-12T02:49:16.386Z,44.88
2024-01-12T02:49:47.984Z,51.83
2024-01-12T02:50:19.971Z,53.15
2024-01-12T02:50:51.778Z,53.15
2024-01-12T02:51:23.462Z,48.53
2024-01-12T02:51:55.252Z,56.95
2024-01-12T02:52:26.878Z,56.10
2024-01-12T02:52:58.461Z,51.40
2024-01-12T02:53:30.159Z,51.63
2024-01-12T02:54:01.777Z,48.65
2024-01-12T02:54:35.830Z,51.47
2024-01-12T02:55:07.719Z,45.17
2024-01-12T02:55:39.375Z,46.25
2024-01-12T02:56:11.507Z,44.90
2024-01-12T02:56:43.183Z,47.53
2024-01-12T02:57:15.173Z,51.22
2024-01-12T02:57:46.971Z,46.70
2024-01-12T02:58:18.590Z,52.80
2024-01-12T02:58:50.189Z,45.67
2024-01-12T02:59:21.934Z,44.22
2024-01-12T02:59:53.749Z,51.63
2024-01-12T03:00:25.882Z,51.40
2024-01-12T03:00:57.571Z,44.50
2024-01-12T03:01:29.305Z,52.45
2024-01-12T03:02:01.152Z,41.25
2024-01-12T03:02:35.853Z,48.90
2024-01-12T03:03:07.813Z,46.13
2024-01-12T03:03:39.508Z,50.40
2024-01-12T03:04:11.188Z,52.72
2024-01-12T03:04:42.866Z,47.10
2024-01-12T03:05:14.621Z,50.88
2024-01-12T03:05:46.820Z,42.13
2024-01-12T03:06:18.690Z,47.65
2024-01-12T03:06:50.433Z,53.55
2024-01-12T03:07:22.030Z,54.58
2024-01-12T03:07:53.740Z,49.35
2024-01-12T03:08:25.316Z,54.67
2024-01-12T03:08:57.041Z,53.58
2024-01-12T03:09:28.662Z,54.17
2024-01-12T03:10:00.909Z,59.40
2024-01-12T03:10:32.626Z,55.88
2024-01-12T03:11:04.926Z,50.45
2024-01-12T03:11:37.055Z,45.92
2024-01-12T03:12:08.836Z,51.97
2024-01-12T03:12:40.452Z,55.60
2024-01-12T03:13:12.050Z,46.63
2024-01-12T03:13:43.632Z,52.20
2024-01-12T03:14:15.200Z,45.65
2024-01-12T03:14:46.887Z,55.17
2024-01-12T03:15:18.493Z,49.30
2024-01-12T03:15:50.150Z,49.28
2024-01-12T03:16:22.555Z,51.83
2024-01-12T03:16:54.160Z,49.40
2024-01-12T03:17:26.438Z,59.40
2024-01-12T03:17:58.447Z,53.25
2024-01-12T03:18:31.480Z,53.88
2024-01-12T03:19:03.399Z,54.22
2024-01-12T03:19:35.151Z,55.47
2024-01-12T03:20:08.199Z,50.17
2024-01-12T03:20:39.849Z,59.30
2024-01-12T03:21:11.566Z,56.22
2024-01-12T03:21:43.145Z,57.35
2024-01-12T03:22:14.742Z,60.17
2024-01-12T03:22:46.446Z,52.00
2024-01-12T03:23:18.024Z,47.90
2024-01-12T03:23:49.837Z,56.03
2024-01-12T03:24:21.522Z,58.83
2024-01-12T03:24:53.104Z,55.72
2024-01-12T03:25:24.782Z,55.22
2024-01-12T03:25:56.425Z,61.75
2024-01-12T03:26:28.051Z,49.30
2024-01-12T03:26:59.728Z,51.95
2024-01-12T03:27:33.374Z,54.35
2024-01-12T03:28:05.404Z,56.75
2024-01-12T03:28:36.980Z,51.65
2024-01-12T03:29:08.521Z,42.72
2024-01-12T03:29:40.276Z,51.17
2024-01-12T03:30:12.236Z,45.47
2024-01-12T03:30:44.224Z,53.17
2024-01-12T03:31:18.546Z,47.50
2024-01-12T03:31:51.052Z,49.10
2024-01-12T03:32:22.967Z,48.72
2024-01-12T03:32:55.143Z,51.95
2024-01-12T03:33:26.969Z,46.72
2024-01-12T03:33:58.688Z,50.65
2024-01-12T03:34:30.415Z,50.92
2024-01-12T03:35:02.424Z,48.30
2024-01-12T03:35:36.229Z,52.92
2024-01-12T03:36:08.691Z,44.92
2024-01-12T03:36:40.311Z,53.85
2024-01-12T03:37:11.989Z,56.33
2024-01-12T03:37:43.544Z,49.60
2024-01-12T03:38:15.336Z,51.00
2024-01-12T03:38:47.136Z,43.67
2024-01-12T03:39:18.805Z,54.80
2024-01-12T03:39:50.459Z,51.75
2024-01-12T03:40:22.114Z,54.55
2024-01-12T03:40:53.704Z,48.42
2024-01-12T03:41:25.440Z,51.38
2024-01-12T03:41:57.173Z,54.22
2024-01-12T03:42:28.812Z,47.38
2024-01-12T03:43:00.416Z,44.55
2024-01-12T03:43:32.037Z,50.58
2024-01-12T03:44:03.740Z,49.80
2024-01-12T03:44:35.714Z,51.35
2024-01-12T03:45:08.072Z,56.58
2024-01-12T03:45:39.703Z,56.35
2024-01-12T03:46:11.373Z,51.75
2024-01-12T03:46:42.924Z,49.20
2024-01-12T03:47:14.603Z,56.15
2024-01-12T03:47:46.725Z,52.10
2024-01-12T03:48:19.364Z,46.53
2024-01-12T03:48:51.097Z,48.05
2024-01-12T03:49:25.862Z,45.33
2024-01-12T03:49:57.587Z,44.95
2024-01-12T03:50:29.160Z,47.63
2024-01-12T03:51:00.896Z,47.55
2024-01-12T03:51:32.561Z,46.85
2024-01-12T03:52:14.917Z,52.13
2024-01-12T03:52:47.907Z,46.67
2024-01-12T03:53:19.541Z,47.25
2024-01-12T03:53:51.206Z,46.72
2024-01-12T03:54:23.060Z,43.92
2024-01-12T03:54:54.901Z,46.30
2024-01-12T03:55:26.485Z,48.80
2024-01-12T03:55:58.113Z,50.50
2024-01-12T03:56:29.701Z,48.08
2024-01-12T03:57:01.400Z,55.53
2024-01-12T03:57:33.032Z,46.58
2024-01-12T03:58:05.280Z,50.33
2024-01-12T03:58:40.127Z,49.20
2024-01-12T03:59:12.460Z,46.08
2024-01-12T03:59:44.247Z,44.50
2024-01-12T04:00:17.048Z,46.47
2024-01-12T04:00:49.077Z,49.65
2024-01-12T04:01:23.098Z,53.88
2024-01-12T04:01:55.005Z,44.53
2024-01-12T04:02:26.718Z,45.83
2024-01-12T04:02:58.471Z,45.70
2024-01-12T04:03:30.068Z,39.35
2024-01-12T04:04:01.724Z,46.45
2024-01-12T04:04:33.605Z,51.15
2024-01-12T04:05:05.938Z,48.15
2024-01-12T04:05:37.817Z,49.13
2024-01-12T04:06:10.636Z,48.30
2024-01-12T04:06:42.522Z,45.67
2024-01-12T04:07:14.156Z,44.05
2024-01-12T04:07:45.745Z,47.75
2024-01-12T04:08:17.322Z,49.40
2024-01-12T04:08:48.954Z,49.35
2024-01-12T04:09:20.538Z,47.50
2024-01-12T04:09:52.339Z,50.30
2024-01-12T04:10:24.039Z,45.13
2024-01-12T04:10:55.655Z,46.10
2024-01-12T04:11:27.589Z,48.97
2024-01-12T04:11:59.301Z,46.13
2024-01-12T04:12:30.873Z,48.88
2024-01-12T04:13:02.681Z,54.08
2024-01-12T04:13:34.384Z,43.20
2024-01-12T04:14:06.401Z,46.13
2024-01-12T04:14:38.067Z,45.70
2024-01-12T04:15:12.884Z,47.38
2024-01-12T04:15:44.837Z,49.03
2024-01-12T04:16:16.478Z,41.72
2024-01-12T04:16:48.035Z,51.00
2024-01-12T04:17:19.703Z,43.60
2024-01-12T04:17:51.374Z,46.05
2024-01-12T04:18:24.852Z,44.35
2024-01-12T04:18:57.053Z,47.35
2024-01-12T04:19:28.755Z,50.53
2024-01-12T04:20:00.316Z,48.90
2024-01-12T04:20:31.899Z,44.55
2024-01-12T04:21:05.106Z,50.40
2024-01-12T04:21:36.814Z,51.75
2024-01-12T04:22:08.417Z,51.35
2024-01-12T04:22:40.246Z,49.38
2024-01-12T04:23:11.925Z,50.75
2024-01-12T04:23:43.675Z,48.45
2024-01-12T04:24:15.247Z,44.20
2024-01-12T04:24:46.868Z,47.40
2024-01-12T04:25:18.437Z,43.55
2024-01-12T04:25:50.090Z,50.33
2024-01-12T04:26:21.926Z,49.83
2024-01-12T04:26:53.836Z,47.80
2024-01-12T04:27:26.396Z,53.38
2024-01-12T04:27:58.038Z,46.65
2024-01-12T04:28:29.623Z,45.97
2024-01-12T04:29:01.184Z,52.58
2024-01-12T04:29:32.789Z,43.20
2024-01-12T04:30:05.081Z,44.65
2024-01-12T04:30:36.730Z,48.03
2024-01-12T04:31:08.442Z,45.15
2024-01-12T04:31:41.616Z,47.10
2024-01-12T04:32:13.624Z,43.47
2024-01-12T04:32:45.422Z,45.38
2024-01-12T04:33:17.627Z,51.55
2024-01-12T04:33:49.427Z,47.58
2024-01-12T04:34:21.169Z,50.15
2024-01-12T04:34:53.116Z,50.20
2024-01-12T04:35:24.745Z,49.05
2024-01-12T04:35:56.678Z,47.85
2024-01-12T04:36:28.376Z,50.13
2024-01-12T04:36:59.959Z,55.88
2024-01-12T04:37:31.528Z,51.88
2024-01-12T04:38:03.294Z,54.85
2024-01-12T04:38:34.881Z,41.08
2024-01-12T04:39:06.751Z,43.55
2024-01-12T04:39:41.208Z,54.92
2024-01-12T04:40:12.933Z,49.63
2024-01-12T04:40:44.564Z,45.97
2024-01-12T04:41:16.243Z,40.67
2024-01-12T04:41:47.894Z,55.33
2024-01-12T04:42:19.522Z,49.55
2024-01-12T04:42:51.194Z,56.38
2024-01-12T04:43:22.848Z,49.90
2024-01-12T04:43:54.600Z,43.38
2024-01-12T04:44:26.255Z,46.42
2024-01-12T04:44:57.943Z,50.22
2024-01-12T04:45:29.558Z,51.55
2024-01-12T04:46:01.152Z,50.60
2024-01-12T04:46:32.723Z,45.97
2024-01-12T04:47:04.629Z,46.90
2024-01-12T04:47:36.456Z,55.97
2024-01-12T04:48:08.190Z,49.75
2024-01-12T04:48:40.178Z,44.45
2024-01-12T04:49:12.017Z,45.40
2024-01-12T04:49:43.739Z,48.85
2024-01-12T04:50:16.078Z,53.80
2024-01-12T04:50:47.761Z,47.25
2024-01-12T04:51:21.002Z,44.38
2024-01-12T04:51:52.752Z,45.58
2024-01-12T04:52:24.313Z,51.20
2024-01-12T04:52:55.945Z,49.28
2024-01-12T04:53:27.819Z,51.15
2024-01-12T04:54:00.161Z,49.97
2024-01-12T04:54:31.894Z,48.25
2024-01-12T04:55:03.738Z,46.58
2024-01-12T04:55:35.394Z,47.38
2024-01-12T04:56:07.002Z,45.83
2024-01-12T04:56:38.607Z,46.72
2024-01-12T04:57:10.260Z,48.67
2024-01-12T04:57:41.924Z,51.92
2024-01-12T04:58:13.490Z,42.28
2024-01-12T04:58:45.563Z,48.20
2024-01-12T04:59:17.225Z,53.80
2024-01-12T04:59:48.963Z,42.90
2024-01-12T05:00:20.882Z,40.85
2024-01-12T05:00:52.690Z,45.13
2024-01-12T05:01:24.477Z,44.42
2024-01-12T05:01:56.117Z,56.42
2024-01-12T05:02:27.933Z,49.28
2024-01-12T05:02:59.702Z,48.10
2024-01-12T05:03:31.559Z,48.38
2024-01-12T05:04:03.307Z,46.50
2024-01-12T05:04:34.947Z,47.13
2024-01-12T05:05:06.773Z,45.65
2024-01-12T05:05:38.438Z,46.53
2024-01-12T05:06:10.947Z,45.20
2024-01-12T05:06:42.658Z,44.47
2024-01-12T05:07:14.501Z,46.97
2024-01-12T05:07:46.154Z,44.83
2024-01-12T05:08:17.780Z,41.17
2024-01-12T05:08:49.448Z,48.08
2024-01-12T05:09:21.009Z,42.03
2024-01-12T05:09:52.560Z,50.25
2024-01-12T05:10:24.165Z,41.92
2024-01-12T05:10:55.987Z,46.65
2024-01-12T05:11:27.907Z,42.90
2024-01-12T05:12:04.429Z,41.45
2024-01-12T05:12:36.470Z,46.58
2024-01-12T05:13:08.033Z,44.58
2024-01-12T05:13:39.629Z,44.85
2024-01-12T05:14:11.201Z,45.13
2024-01-12T05:14:43.841Z,46.25
2024-01-12T05:15:17.221Z,39.13
2024-01-12T05:15:48.875Z,47.00
2024-01-12T05:16:20.536Z,43.88
2024-01-12T05:16:52.123Z,43.25
2024-01-12T05:17:24.403Z,41.15
2024-01-12T05:17:56.167Z,42.40
2024-01-12T05:18:28.040Z,46.80
2024-01-12T05:18:59.793Z,44.42
2024-01-12T05:19:31.536Z,39.40
2024-01-12T05:20:08.084Z,48.97
2024-01-12T05:20:40.869Z,44.72
2024-01-12T05:21:12.522Z,41.95
2024-01-12T05:21:44.114Z,43.80
2024-01-12T05:22:16.056Z,41.55
2024-01-12T05:22:47.651Z,44.25
2024-01-12T05:23:20.631Z,43.67
2024-01-12T05:23:52.339Z,45.00
2024-01-12T05:24:24.046Z,46.03
2024-01-12T05:24:55.632Z,45.40
2024-01-12T05:25:27.254Z,43.22
2024-01-12T05:25:59.224Z,42.50
2024-01-12T05:26:30.858Z,49.17
2024-01-12T05:27:02.716Z,42.25
2024-01-12T05:27:34.560Z,44.80
2024-01-12T05:28:06.352Z,51.13
2024-01-12T05:28:38.492Z,42.35
2024-01-12T05:29:10.170Z,46.08
2024-01-12T05:29:41.825Z,43.00
2024-01-12T05:30:14.895Z,51.90
2024-01-12T05:30:46.843Z,43.08
2024-01-12T05:31:18.942Z,42.25
2024-01-12T05:31:50.619Z,46.10
2024-01-12T05:32:22.543Z,51.25
2024-01-12T05:32:54.269Z,44.15
2024-01-12T05:33:26.004Z,48.78
2024-01-12T05:33:57.811Z,45.33
2024-01-12T05:34:29.571Z,48.33
2024-01-12T05:35:01.330Z,41.38
2024-01-12T05:35:33.091Z,37.35
2024-01-12T05:36:05.033Z,42.22
2024-01-12T05:36:36.798Z,37.92
2024-01-12T05:37:08.388Z,41.22
2024-01-12T05:37:40.420Z,38.08
2024-01-12T05:38:12.041Z,34.15
2024-01-12T05:38:43.608Z,35.17
2024-01-12T05:39:16.079Z,42.25
2024-01-12T05:39:48.311Z,38.55
2024-01-12T05:40:19.891Z,45.13
2024-01-12T05:40:51.485Z,43.75
2024-01-12T05:41:23.061Z,45.05
2024-01-12T05:41:55.072Z,41.00
2024-01-12T05:42:26.715Z,41.10
2024-01-12T05:42:58.338Z,40.88
2024-01-12T05:43:30.110Z,45.35
2024-01-12T05:44:01.717Z,38.97
2024-01-12T05:44:33.287Z,44.22
2024-01-12T05:45:05.380Z,40.33
2024-01-12T05:45:36.962Z,48.15
2024-01-12T05:46:08.506Z,43.97
2024-01-12T05:46:43.067Z,47.60
2024-01-12T05:47:14.682Z,40.00
2024-01-12T05:47:46.476Z,42.28
2024-01-12T05:48:18.623Z,38.95
2024-01-12T05:48:50.519Z,40.15
2024-01-12T05:49:22.468Z,41.33
2024-01-12T05:49:54.120Z,38.80
2024-01-12T05:50:25.714Z,40.22
2024-01-12T05:50:57.324Z,39.95
2024-01-12T05:51:29.022Z,38.58
2024-01-12T05:52:00.582Z,35.83
2024-01-12T05:52:33.334Z,38.60
2024-01-12T05:53:06.645Z,37.72
2024-01-12T05:53:38.330Z,44.72
2024-01-12T05:54:10.050Z,40.00
2024-01-12T05:54:41.711Z,44.97
2024-01-12T05:55:13.262Z,34.55
2024-01-12T05:55:45.190Z,39.05
2024-01-12T05:56:17.083Z,39.05
2024-01-12T05:56:48.798Z,38.08
2024-01-12T05:57:20.382Z,37.28
2024-01-12T05:57:52.323Z,38.17
2024-01-12T05:58:23.903Z,42.20
2024-01-12T05:58:55.509Z,38.20
2024-01-12T05:59:27.120Z,43.33
2024-01-12T05:59:58.899Z,43.78
2024-01-12T06:00:30.553Z,41.65
2024-01-12T06:01:02.125Z,40.58
2024-01-12T06:01:33.731Z,37.95
2024-01-12T06:02:05.486Z,35.95
2024-01-12T06:02:37.141Z,44.25
2024-01-12T06:03:08.839Z,41.17
2024-01-12T06:03:40.472Z,39.17
2024-01-12T06:04:12.261Z,42.63
2024-01-12T06:04:43.945Z,39.35
2024-01-12T06:05:15.698Z,40.70
2024-01-12T06:05:49.897Z,42.25
2024-01-12T06:06:21.713Z,38.75
2024-01-12T06:06:53.954Z,39.08
2024-01-12T06:07:25.545Z,39.28
2024-01-12T06:07:57.223Z,37.78
2024-01-12T06:08:28.877Z,37.97
2024-01-12T06:09:00.565Z,33.80
2024-01-12T06:09:32.325Z,39.45
2024-01-12T06:10:06.063Z,36.85
2024-01-12T06:10:37.880Z,36.80
2024-01-12T06:11:09.546Z,44.35
2024-01-12T06:11:44.631Z,44.53
2024-01-12T06:12:16.608Z,38.80
2024-01-12T06:12:48.200Z,35.08
2024-01-12T06:13:20.084Z,41.63
2024-01-12T06:13:51.682Z,34.67
2024-01-12T06:14:23.332Z,35.22
2024-01-12T06:14:54.936Z,34.03
2024-01-12T06:15:26.590Z,37.85
2024-01-12T06:15:58.202Z,36.55
2024-01-12T06:16:29.825Z,43.83
2024-01-12T06:17:01.415Z,44.25
2024-01-12T06:17:33.140Z,39.45
2024-01-12T06:18:05.423Z,39.53
2024-01-12T06:18:38.484Z,41.00
2024-01-12T06:19:10.369Z,41.95
2024-01-12T06:19:42.154Z,37.33
2024-01-12T06:20:13.759Z,38.42
2024-01-12T06:20:45.413Z,39.72
2024-01-12T06:21:17.045Z,39.55
2024-01-12T06:21:48.697Z,42.30
2024-01-12T06:22:20.240Z,30.70
2024-01-12T06:22:52.028Z,35.95
2024-01-12T06:23:23.698Z,29.58
2024-01-12T06:23:55.416Z,37.53
2024-01-12T06:24:27.086Z,39.33
2024-01-12T06:24:58.688Z,32.92
2024-01-12T06:25:31.029Z,32.20
2024-01-12T06:26:03.230Z,31.50
2024-01-12T06:26:34.873Z,35.13
2024-01-12T06:27:06.544Z,37.35
2024-01-12T06:27:38.320Z,36.28
2024-01-12T06:28:09.983Z,33.35
2024-01-12T06:28:41.535Z,34.55
2024-01-12T06:29:13.110Z,36.65
2024-01-12T06:29:44.750Z,33.47
2024-01-12T06:30:17.039Z,37.90
2024-01-12T06:30:48.739Z,35.75
2024-01-12T06:31:20.461Z,34.90
2024-01-12T06:31:52.177Z,34.95
2024-01-12T06:32:23.870Z,36.92
2024-01-12T06:32:55.637Z,34.58
2024-01-12T06:33:27.508Z,29.10
2024-01-12T06:33:59.218Z,29.30
2024-01-12T06:34:30.852Z,34.08
2024-01-12T06:35:02.487Z,30.83
2024-01-12T06:35:34.127Z,31.90
2024-01-12T06:36:06.273Z,33.30
2024-01-12T06:36:45.807Z,32.80
2024-01-12T06:37:17.403Z,29.20
2024-01-12T06:37:48.973Z,31.35
2024-01-12T06:38:20.657Z,34.08
2024-01-12T06:38:56.169Z,33.72
2024-01-12T06:39:28.328Z,33.40
2024-01-12T06:40:00.835Z,33.80
2024-01-12T06:40:32.755Z,32.90
2024-01-12T06:41:04.688Z,32.35
2024-01-12T06:41:43.166Z,36.63
2024-01-12T06:42:14.798Z,36.22
2024-01-12T06:42:46.469Z,38.60
2024-01-12T06:43:19.131Z,34.03
2024-01-12T06:43:50.855Z,32.92
2024-01-12T06:44:22.512Z,29.95
2024-01-12T06:44:54.136Z,38.13
2024-01-12T06:45:25.737Z,38.28
2024-01-12T06:45:57.370Z,37.65
2024-01-12T06:46:28.927Z,35.13
2024-01-12T06:47:00.697Z,36.55
2024-01-12T06:47:32.416Z,33.47
2024-01-12T06:48:04.294Z,39.15
2024-01-12T06:48:36.181Z,34.53
2024-01-12T06:49:07.805Z,28.58
2024-01-12T06:49:46.442Z,26.58
2024-01-12T06:50:18.110Z,30.25
2024-01-12T06:50:49.929Z,32.30
2024-01-12T06:51:24.541Z,33.50
2024-01-12T06:51:56.139Z,29.17
2024-01-12T06:52:27.860Z,33.88
2024-01-12T06:53:01.358Z,31.55
2024-01-12T06:53:33.071Z,31.20
2024-01-12T06:54:04.910Z,31.40
2024-01-12T06:54:36.511Z,35.35
2024-01-12T06:55:08.632Z,32.00
2024-01-12T06:55:40.262Z,34.72
2024-01-12T06:56:19.825Z,28.90
2024-01-12T06:56:53.983Z,41.72
2024-01-12T06:57:25.617Z,38.08
2024-01-12T06:57:57.142Z,31.55
2024-01-12T06:58:29.097Z,30.92
2024-01-12T06:59:00.700Z,27.33
2024-01-12T06:59:32.898Z,30.20
2024-01-12T07:00:07.498Z,33.03
2024-01-12T07:00:39.227Z,32.22
2024-01-12T07:01:11.062Z,32.50
2024-01-12T07:01:42.758Z,31.55
2024-01-12T07:02:15.660Z,33.75
2024-01-12T07:02:47.547Z,30.63
2024-01-12T07:03:19.254Z,32.30
2024-01-12T07:03:52.656Z,34.22
2024-01-12T07:04:24.348Z,24.50
2024-01-12T07:04:55.971Z,38.47
2024-01-12T07:05:27.729Z,28.00
2024-01-12T07:06:01.552Z,35.58
2024-01-12T07:06:33.674Z,32.83
2024-01-12T07:07:05.900Z,34.67
2024-01-12T07:07:37.568Z,34.53
2024-01-12T07:08:09.363Z,32.83
2024-01-12T07:08:40.955Z,25.08
2024-01-12T07:09:14.193Z,32.67
2024-01-12T07:09:47.008Z,32.80
2024-01-12T07:10:19.002Z,31.13
2024-01-12T07:10:50.659Z,31.30
2024-01-12T07:11:22.739Z,36.83
2024-01-12T07:11:54.975Z,25.90
2024-01-12T07:12:27.262Z,33.05
2024-01-12T07:12:58.906Z,28.73
2024-01-12T07:13:30.462Z,24.08
2024-01-12T07:14:02.081Z,29.05
2024-01-12T07:14:33.714Z,34.47
2024-01-12T07:15:07.274Z,37.42
2024-01-12T07:15:38.863Z,31.83
2024-01-12T07:16:10.435Z,32.03
2024-01-12T07:16:42.189Z,29.67
2024-01-12T07:17:13.785Z,30.27
2024-01-12T07:17:47.583Z,35.03
2024-01-12T07:18:19.427Z,31.40
2024-01-12T07:18:51.453Z,33.05
2024-01-12T07:19:23.344Z,34.17
2024-01-12T07:19:55.072Z,33.97
2024-01-12T07:20:26.724Z,37.13
2024-01-12T07:21:04.281Z,32.90
2024-01-12T07:21:36.461Z,29.70
2024-01-12T07:22:08.066Z,35.80
2024-01-12T07:22:39.739Z,41.72
2024-01-12T07:23:11.297Z,30.95
2024-01-12T07:23:42.911Z,36.08
2024-01-12T07:24:14.857Z,30.65
2024-01-12T07:24:46.532Z,30.55
2024-01-12T07:25:18.586Z,33.40
2024-01-12T07:25:50.204Z,33.90
2024-01-12T07:26:22.015Z,30.27
2024-01-12T07:26:53.750Z,33.83
2024-01-12T07:27:25.578Z,31.00
2024-01-12T07:27:57.208Z,25.77
2024-01-12T07:28:28.878Z,38.67
2024-01-12T07:29:02.124Z,33.72
2024-01-12T07:29:34.244Z,26.80
2024-01-12T07:30:06.935Z,31.80
2024-01-12T07:30:38.762Z,30.58
2024-01-12T07:31:10.530Z,29.27
2024-01-12T07:31:42.229Z,34.05
2024-01-12T07:32:14.061Z,32.70
2024-01-12T07:32:45.946Z,34.65
2024-01-12T07:33:18.013Z,28.55
2024-01-12T07:33:49.768Z,27.35
2024-01-12T07:34:21.515Z,31.90
2024-01-12T07:34:53.260Z,29.05
2024-01-12T07:35:25.104Z,32.35
2024-01-12T07:35:56.932Z,24.60
2024-01-12T07:36:28.778Z,33.85
2024-01-12T07:37:02.003Z,31.33
2024-01-12T07:37:33.602Z,32.40
2024-01-12T07:38:05.175Z,32.10
2024-01-12T07:38:37.046Z,32.17
2024-01-12T07:39:08.824Z,27.90
2024-01-12T07:39:40.498Z,29.75
2024-01-12T07:40:13.488Z,24.75
2024-01-12T07:40:45.334Z,23.65
2024-01-12T07:41:17.051Z,31.88
2024-01-12T07:41:48.737Z,25.58
2024-01-12T07:42:20.374Z,28.25
2024-01-12T07:42:51.975Z,30.17
2024-01-12T07:43:23.583Z,26.10
2024-01-12T07:43:55.643Z,33.72
2024-01-12T07:44:27.282Z,28.90
2024-01-12T07:44:58.951Z,30.27
2024-01-12T07:45:30.778Z,24.50
2024-01-12T07:46:02.350Z,25.83
2024-01-12T07:46:34.382Z,26.90
2024-01-12T07:47:06.037Z,32.17
2024-01-12T07:47:37.877Z,30.38
2024-01-12T07:48:09.798Z,27.40
2024-01-12T07:48:41.778Z,28.60
2024-01-12T07:49:13.546Z,28.27
2024-01-12T07:49:45.290Z,23.92
2024-01-12T07:50:17.064Z,25.38
2024-01-12T07:50:48.749Z,21.52
2024-01-12T07:51:20.514Z,24.17
2024-01-12T07:51:52.941Z,24.10
2024-01-12T07:52:24.652Z,26.25
2024-01-12T07:52:56.288Z,24.25
2024-01-12T07:53:27.897Z,24.05
2024-01-12T07:53:59.559Z,31.02
2024-01-12T07:54:31.680Z,26.58
2024-01-12T07:55:03.577Z,24.52
2024-01-12T07:55:35.225Z,25.30
2024-01-12T07:56:07.088Z,28.10
2024-01-12T07:56:38.752Z,20.25
2024-01-12T07:57:10.399Z,26.25
2024-01-12T07:57:42.169Z,22.60
2024-01-12T07:58:13.812Z,25.98
2024-01-12T07:58:45.396Z,28.55
2024-01-12T07:59:17.076Z,23.85
2024-01-12T07:59:48.805Z,29.10
2024-01-12T08:00:20.962Z,29.70
2024-01-12T08:00:52.622Z,28.38
2024-01-12T08:01:24.515Z,27.60
2024-01-12T08:01:56.272Z,21.23
2024-01-12T08:02:27.864Z,21.75
2024-01-12T08:02:59.908Z,24.70
2024-01-12T08:03:31.470Z,26.55
2024-01-12T08:04:04.226Z,23.60
2024-01-12T08:04:38.637Z,31.27
2024-01-12T08:05:10.540Z,27.67
2024-01-12T08:05:42.336Z,23.50
2024-01-12T08:06:14.165Z,24.48
2024-01-12T08:06:45.908Z,26.98
2024-01-12T08:07:17.695Z,23.70
2024-01-12T08:07:50.152Z,29.20
2024-01-12T08:08:22.015Z,20.67
2024-01-12T08:08:53.737Z,28.70
2024-01-12T08:09:25.345Z,21.15
2024-01-12T08:09:56.921Z,26.70
2024-01-12T08:10:28.569Z,29.83
2024-01-12T08:11:00.469Z,21.27
2024-01-12T08:11:39.915Z,29.55
2024-01-12T08:12:13.042Z,25.77
2024-01-12T08:12:49.066Z,20.65
2024-01-12T08:13:20.616Z,19.15
2024-01-12T08:13:53.831Z,24.00
2024-01-12T08:14:25.463Z,25.45
2024-01-12T08:14:57.120Z,29.15
2024-01-12T08:15:28.814Z,20.85
2024-01-12T08:16:00.366Z,27.40
2024-01-12T08:16:32.699Z,25.48
2024-01-12T08:17:04.682Z,28.13
2024-01-12T08:17:37.732Z,24.00
2024-01-12T08:18:10.509Z,29.10
2024-01-12T08:18:42.267Z,32.55
2024-01-12T08:19:13.910Z,24.13
2024-01-12T08:19:45.543Z,26.70
2024-01-12T08:20:17.350Z,25.92
2024-01-12T08:20:49.299Z,28.08
2024-01-12T08:21:21.092Z,25.00
2024-01-12T08:21:56.239Z,33.28
2024-01-12T08:22:28.693Z,24.38
2024-01-12T08:23:00.306Z,30.75
2024-01-12T08:23:31.968Z,26.75
2024-01-12T08:24:03.988Z,28.17
2024-01-12T08:24:35.629Z,26.13
2024-01-12T08:25:07.984Z,28.63